createdAt,value
2019-06-20T00:00:39.001Z,4.57
2019-06-20T00:03:06.765Z,4.43
2019-06-20T00:05:34.580Z,5.27
2019-06-20T00:08:02.493Z,4.40
2019-06-20T00:10:30.389Z,4.23
2019-06-20T00:13:00.791Z,5.10
2019-06-20T00:15:27.920Z,4.87
2019-06-20T00:17:55.720Z,4.87
2019-06-20T00:20:23.518Z,5.23
2019-06-20T00:22:51.305Z,5.37
2019-06-20T00:25:19.090Z,5.00
2019-06-20T00:27:46.888Z,6.47
2019-06-20T00:30:15.459Z,5.37
2019-06-20T00:32:45.189Z,4.97
2019-06-20T00:35:12.977Z,5.60
2019-06-20T00:37:40.768Z,4.83
2019-06-20T00:40:09.142Z,5.40
2019-06-20T00:42:36.924Z,4.47
2019-06-20T00:45:05.583Z,5.00
2019-06-20T00:47:33.371Z,5.17
2019-06-20T00:50:01.148Z,4.80
2019-06-20T00:52:28.954Z,4.63
2019-06-20T00:54:56.723Z,4.20
2019-06-20T00:57:24.563Z,4.50
2019-06-20T00:59:52.347Z,3.40
2019-06-20T01:02:20.182Z,3.70
2019-06-20T01:04:47.997Z,3.83
2019-06-20T01:07:18.571Z,3.30
2019-06-20T01:09:46.331Z,3.97
2019-06-20T01:12:14.166Z,4.60
2019-06-20T01:14:41.945Z,4.30
2019-06-20T01:17:09.729Z,3.63
2019-06-20T01:19:37.573Z,4.33
2019-06-20T01:22:05.390Z,4.20
2019-06-20T01:24:33.292Z,3.00
2019-06-20T01:27:01.115Z,3.80
2019-06-20T01:29:28.869Z,4.00
2019-06-20T01:31:56.651Z,3.43
2019-06-20T01:34:24.436Z,2.90
2019-06-20T01:36:52.241Z,3.10
2019-06-20T01:39:20.010Z,3.83
2019-06-20T01:41:50.793Z,3.37
2019-06-20T01:44:18.583Z,2.87
2019-06-20T01:46:46.399Z,3.93
2019-06-20T01:49:14.166Z,3.57
2019-06-20T01:51:41.986Z,3.40
2019-06-20T01:54:09.739Z,3.43
2019-06-20T01:56:37.516Z,2.23
2019-06-20T01:59:05.327Z,3.40
2019-06-20T02:01:33.159Z,2.73
2019-06-20T02:04:00.977Z,2.87
2019-06-20T02:06:28.744Z,3.67
2019-06-20T02:08:56.136Z,3.10
2019-06-20T02:11:23.983Z,3.27
2019-06-20T02:14:06.428Z,3.00
2019-06-20T02:16:21.494Z,2.77
2019-06-20T02:18:49.329Z,2.93
2019-06-20T02:21:17.096Z,2.23
2019-06-20T02:23:44.912Z,3.13
2019-06-20T02:26:12.701Z,2.97
2019-06-20T02:28:40.500Z,2.50
2019-06-20T02:31:08.272Z,2.47
2019-06-20T02:33:36.042Z,2.63
2019-06-20T02:36:03.865Z,2.60
2019-06-20T02:38:31.772Z,2.60
2019-06-20T02:40:59.534Z,2.70
2019-06-20T02:43:27.517Z,2.10
2019-06-20T02:45:55.354Z,2.67
2019-06-20T02:48:23.155Z,2.60
2019-06-20T02:50:50.917Z,2.57
2019-06-20T02:53:18.692Z,2.33
2019-06-20T02:55:46.639Z,2.10
2019-06-20T02:58:14.538Z,2.53
2019-06-20T03:00:55.538Z,2.23
2019-06-20T03:03:23.533Z,2.57
2019-06-20T03:05:51.401Z,2.07
2019-06-20T03:08:19.210Z,2.33
2019-06-20T03:10:46.978Z,2.70
2019-06-20T03:13:14.777Z,2.43
2019-06-20T03:15:42.580Z,2.60
2019-06-20T03:18:10.378Z,2.20
2019-06-20T03:20:38.145Z,2.73
2019-06-20T03:23:05.961Z,2.47
2019-06-20T03:25:33.745Z,3.37
2019-06-20T03:28:01.557Z,2.70
2019-06-20T03:30:29.487Z,3.70
2019-06-20T03:32:57.361Z,2.00
2019-06-20T03:35:25.185Z,2.50
2019-06-20T03:37:52.998Z,2.80
2019-06-20T03:40:20.785Z,2.63
2019-06-20T03:42:48.702Z,2.60
2019-06-20T03:45:16.445Z,3.50
2019-06-20T03:47:44.256Z,2.70
2019-06-20T03:50:12.231Z,3.17
2019-06-20T03:52:40.006Z,2.93
2019-06-20T03:55:08.400Z,2.50
2019-06-20T03:57:36.162Z,3.20
2019-06-20T04:00:05.111Z,3.07
2019-06-20T04:02:32.895Z,3.20
2019-06-20T04:05:01.048Z,2.50
2019-06-20T04:07:28.863Z,3.00
2019-06-20T04:09:56.631Z,2.60
2019-06-20T04:12:24.405Z,2.80
2019-06-20T04:14:52.198Z,2.47
2019-06-20T04:17:19.989Z,2.63
2019-06-20T04:19:47.781Z,2.77
2019-06-20T04:22:15.594Z,2.80
2019-06-20T04:24:43.422Z,3.53
2019-06-20T04:27:11.228Z,2.87
2019-06-20T04:29:39.044Z,2.93
2019-06-20T04:32:06.834Z,3.70
2019-06-20T04:34:34.724Z,3.00
2019-06-20T04:37:02.474Z,3.00
2019-06-20T04:39:30.289Z,3.03
2019-06-20T04:41:58.048Z,3.20
2019-06-20T04:44:25.913Z,2.90
2019-06-20T04:46:59.791Z,3.20
2019-06-20T04:49:27.646Z,3.23
2019-06-20T04:51:55.463Z,3.20
2019-06-20T04:54:23.298Z,3.27
2019-06-20T04:56:51.099Z,3.23
2019-06-20T04:59:18.943Z,3.33
2019-06-20T05:01:46.711Z,3.23
2019-06-20T05:04:14.520Z,2.70
2019-06-20T05:06:46.414Z,2.80
2019-06-20T05:09:14.210Z,3.00
2019-06-20T05:11:41.998Z,2.90
2019-06-20T05:14:09.823Z,3.57
2019-06-20T05:16:37.633Z,3.20
2019-06-20T05:19:05.454Z,3.30
2019-06-20T05:21:33.258Z,3.20
2019-06-20T05:24:01.071Z,3.43
2019-06-20T05:26:28.875Z,3.53
2019-06-20T05:28:56.655Z,3.77
2019-06-20T05:31:24.468Z,3.90
2019-06-20T05:33:52.426Z,2.87
2019-06-20T05:36:20.281Z,3.20
2019-06-20T05:38:48.052Z,3.43
2019-06-20T05:41:15.904Z,3.20
2019-06-20T05:43:43.732Z,3.30
2019-06-20T05:46:11.795Z,2.50
2019-06-20T05:48:39.566Z,2.93
2019-06-20T05:51:07.352Z,3.33
2019-06-20T05:53:35.153Z,3.10
2019-06-20T05:56:02.961Z,2.80
2019-06-20T05:58:30.754Z,3.33
2019-06-20T06:00:58.565Z,3.30
2019-06-20T06:03:26.408Z,3.30
2019-06-20T06:05:54.658Z,3.90
2019-06-20T06:08:22.594Z,2.80
2019-06-20T06:10:50.381Z,3.27
2019-06-20T06:13:18.191Z,3.40
2019-06-20T06:15:46.031Z,3.90
2019-06-20T06:18:14.222Z,3.70
2019-06-20T06:20:44.801Z,3.43
2019-06-20T06:23:11.844Z,3.70
2019-06-20T06:25:41.096Z,3.63
2019-06-20T06:28:12.242Z,3.97
2019-06-20T06:30:38.779Z,4.60
2019-06-20T06:33:06.524Z,3.83
2019-06-20T06:35:34.362Z,4.00
2019-06-20T06:38:02.180Z,3.30
2019-06-20T06:40:30.245Z,3.63
2019-06-20T06:42:58.146Z,4.27
2019-06-20T06:45:25.950Z,3.60
2019-06-20T06:47:53.751Z,3.60
2019-06-20T06:50:21.870Z,3.50
2019-06-20T06:52:49.681Z,3.37
2019-06-20T06:55:18.581Z,4.33
2019-06-20T06:57:46.457Z,3.90
2019-06-20T07:00:16.383Z,3.97
2019-06-20T07:02:44.202Z,4.27
2019-06-20T07:05:12.339Z,3.73
2019-06-20T07:07:40.315Z,4.00
2019-06-20T07:10:08.998Z,3.70
2019-06-20T07:12:36.970Z,3.80
2019-06-20T07:15:05.892Z,3.70
2019-06-20T07:17:33.714Z,4.27
2019-06-20T07:20:01.472Z,4.03
2019-06-20T07:22:29.583Z,4.07
2019-06-20T07:24:57.380Z,4.00
2019-06-20T07:27:25.165Z,3.63
2019-06-20T07:29:52.965Z,4.33
2019-06-20T07:32:20.847Z,3.60
2019-06-20T07:34:49.122Z,3.63
2019-06-20T07:37:16.925Z,3.30
2019-06-20T07:39:44.739Z,3.23
2019-06-20T07:42:12.523Z,3.03
2019-06-20T07:44:40.375Z,3.80
2019-06-20T07:47:16.941Z,3.30
2019-06-20T07:49:37.811Z,2.90
2019-06-20T07:52:05.714Z,2.80
2019-06-20T07:54:33.517Z,3.70
2019-06-20T07:57:01.358Z,2.87
2019-06-20T07:59:29.107Z,3.47
2019-06-20T08:01:56.932Z,3.03
2019-06-20T08:04:24.698Z,3.30
2019-06-20T08:06:52.526Z,3.40
2019-06-20T08:09:22.166Z,3.27
2019-06-20T08:11:49.981Z,2.80
2019-06-20T08:14:17.735Z,2.63
2019-06-20T08:16:45.511Z,2.37
2019-06-20T08:19:13.286Z,2.60
2019-06-20T08:21:44.054Z,3.00
2019-06-20T08:24:10.798Z,3.40
2019-06-20T08:26:38.618Z,3.00
2019-06-20T08:29:19.731Z,2.60
2019-06-20T08:31:36.122Z,3.13
2019-06-20T08:34:04.442Z,3.20
2019-06-20T08:36:32.338Z,3.13
2019-06-20T08:39:00.285Z,3.53
2019-06-20T08:41:29.578Z,3.30
2019-06-20T08:43:58.459Z,3.20
2019-06-20T08:46:27.062Z,3.30
2019-06-20T08:48:54.917Z,3.40
2019-06-20T08:51:24.522Z,3.67
2019-06-20T08:53:52.298Z,2.97
2019-06-20T08:56:20.113Z,3.20
2019-06-20T08:58:47.865Z,3.30
2019-06-20T09:01:15.645Z,3.17
2019-06-20T09:03:43.470Z,3.20
2019-06-20T09:06:11.259Z,3.40
2019-06-20T09:08:39.022Z,3.90
2019-06-20T09:11:09.601Z,3.27
2019-06-20T09:13:39.950Z,3.63
2019-06-20T09:16:07.558Z,3.23
2019-06-20T09:18:35.369Z,3.10
2019-06-20T09:21:03.129Z,3.10
2019-06-20T09:23:30.955Z,3.23
2019-06-20T09:25:59.651Z,3.10
2019-06-20T09:28:27.619Z,3.70
2019-06-20T09:30:55.400Z,3.10
2019-06-20T09:33:23.223Z,3.20
2019-06-20T09:35:53.583Z,2.90
2019-06-20T09:38:23.319Z,3.03
2019-06-20T09:40:51.922Z,3.27
2019-06-20T09:43:27.650Z,3.30
2019-06-20T09:45:51.421Z,2.63
2019-06-20T09:48:20.303Z,2.83
2019-06-20T09:50:49.307Z,2.97
2019-06-20T09:53:17.783Z,2.90
2019-06-20T09:55:45.568Z,2.70
2019-06-20T09:58:13.366Z,2.40
2019-06-20T10:00:41.683Z,2.90
2019-06-20T10:03:09.744Z,2.50
2019-06-20T10:05:37.832Z,3.10
2019-06-20T10:08:06.034Z,3.03
2019-06-20T10:10:35.218Z,3.30
2019-06-20T10:13:02.989Z,2.97
2019-06-20T10:15:32.106Z,2.87
2019-06-20T10:17:59.905Z,2.60
2019-06-20T10:20:27.878Z,3.10
2019-06-20T10:22:55.674Z,3.37
2019-06-20T10:25:24.056Z,3.70
2019-06-20T10:27:53.407Z,4.33
2019-06-20T10:30:22.488Z,3.70
2019-06-20T10:32:51.002Z,4.63
2019-06-20T10:35:18.989Z,4.20
2019-06-20T10:37:48.370Z,4.60
2019-06-20T10:40:18.744Z,5.50
2019-06-20T10:42:48.054Z,5.90
2019-06-20T10:45:17.744Z,5.40
2019-06-20T10:47:47.095Z,5.00
2019-06-20T10:50:17.042Z,4.70
2019-06-20T10:52:45.269Z,5.33
2019-06-20T10:55:13.393Z,5.57
2019-06-20T10:57:41.840Z,4.20
2019-06-20T11:00:26.789Z,4.70
2019-06-20T11:02:43.438Z,4.50
2019-06-20T11:05:12.949Z,3.80
2019-06-20T11:07:42.055Z,3.90
2019-06-20T11:10:10.935Z,4.00
2019-06-20T11:12:45.619Z,3.80
2019-06-20T11:15:09.612Z,4.20
2019-06-20T11:17:38.623Z,4.30
2019-06-20T11:20:08.064Z,3.70
2019-06-20T11:22:37.780Z,3.97
2019-06-20T11:25:06.537Z,3.70
2019-06-20T11:27:34.319Z,3.60
2019-06-20T11:30:02.135Z,3.37
2019-06-20T11:32:30.000Z,3.10
2019-06-20T11:34:57.960Z,3.00
2019-06-20T11:37:25.754Z,3.03
2019-06-20T11:39:53.732Z,2.50
2019-06-20T11:42:21.668Z,2.90
2019-06-20T11:44:49.538Z,2.90
2019-06-20T11:47:20.416Z,3.03
2019-06-20T11:49:48.325Z,2.93
2019-06-20T11:52:16.208Z,2.63
2019-06-20T11:54:44.123Z,2.63
2019-06-20T11:57:11.919Z,2.50
2019-06-20T11:59:40.041Z,2.70
2019-06-20T12:02:10.942Z,2.60
2019-06-20T12:04:40.058Z,2.40
2019-06-20T12:07:10.178Z,2.90
2019-06-20T12:09:39.560Z,2.20
2019-06-20T12:12:08.286Z,2.20
2019-06-20T12:14:36.205Z,2.40
2019-06-20T12:17:04.051Z,2.97
2019-06-20T12:19:31.959Z,2.30
2019-06-20T12:22:00.545Z,2.70
2019-06-20T12:24:28.540Z,2.50
2019-06-20T12:26:56.486Z,2.10
2019-06-20T12:29:24.518Z,2.03
2019-06-20T12:31:52.887Z,2.30
2019-06-20T12:34:20.762Z,2.73
2019-06-20T12:36:48.686Z,2.23
2019-06-20T12:39:16.597Z,2.40
2019-06-20T12:41:45.606Z,2.20
2019-06-20T12:44:13.653Z,1.80
2019-06-20T12:46:42.614Z,2.53
2019-06-20T12:49:10.539Z,1.90
2019-06-20T12:51:39.130Z,2.20
2019-06-20T12:54:08.100Z,2.83
2019-06-20T12:56:35.902Z,2.50
2019-06-20T12:59:03.865Z,2.93
2019-06-20T13:01:38.855Z,2.37
2019-06-20T13:04:01.483Z,2.30
2019-06-20T13:06:29.288Z,2.30
2019-06-20T13:08:57.128Z,2.90
2019-06-20T13:11:24.928Z,3.13
2019-06-20T13:13:52.722Z,4.07
2019-06-20T13:16:20.782Z,3.33
2019-06-20T13:18:48.666Z,2.60
2019-06-20T13:21:18.969Z,2.30
2019-06-20T13:23:47.227Z,2.67
2019-06-20T13:26:15.217Z,2.90
2019-06-20T13:28:59.070Z,2.70
2019-06-20T13:31:12.833Z,2.67
2019-06-20T13:33:40.999Z,3.10
2019-06-20T13:36:09.588Z,2.70
2019-06-20T13:38:38.028Z,5.80
2019-06-20T13:41:07.364Z,2.60
2019-06-20T13:43:35.256Z,2.90
2019-06-20T13:46:03.516Z,4.07
2019-06-20T13:48:42.215Z,2.80
2019-06-20T13:51:19.525Z,2.83
2019-06-20T13:53:48.629Z,3.10
2019-06-20T13:56:17.144Z,2.53
2019-06-20T13:58:45.052Z,3.00
2019-06-20T14:01:14.674Z,2.47
2019-06-20T14:03:44.043Z,3.43
2019-06-20T14:06:12.253Z,3.40
2019-06-20T14:08:42.368Z,2.23
2019-06-20T14:11:10.175Z,2.20
2019-06-20T14:13:38.005Z,2.70
2019-06-20T14:16:05.846Z,2.70
2019-06-20T14:18:33.641Z,3.30
2019-06-20T14:21:01.477Z,3.60
2019-06-20T14:23:30.523Z,3.20
2019-06-20T14:25:58.383Z,3.63
2019-06-20T14:28:26.227Z,3.10
2019-06-20T14:30:54.048Z,3.47
2019-06-20T14:33:21.864Z,2.93
2019-06-20T14:35:51.084Z,4.80
2019-06-20T14:38:19.044Z,9.40
2019-06-20T14:40:48.209Z,3.20
2019-06-20T14:43:16.254Z,3.20
2019-06-20T14:45:45.533Z,2.80
2019-06-20T14:48:14.207Z,2.93
2019-06-20T14:50:43.832Z,2.57
2019-06-20T14:53:11.790Z,2.23
2019-06-20T14:55:39.655Z,2.03
2019-06-20T14:58:07.548Z,1.80
2019-06-20T15:00:35.380Z,1.70
2019-06-20T15:03:03.446Z,2.17
2019-06-20T15:05:34.708Z,1.83
2019-06-20T15:08:00.964Z,1.90
2019-06-20T15:10:28.781Z,1.40
2019-06-20T15:12:58.501Z,1.50
2019-06-20T15:15:26.363Z,1.60
2019-06-20T15:17:58.094Z,1.53
2019-06-20T15:20:26.184Z,2.10
2019-06-20T15:22:54.689Z,1.77
2019-06-20T15:25:24.084Z,2.63
2019-06-20T15:27:53.946Z,2.50
2019-06-20T15:30:21.762Z,2.83
2019-06-20T15:33:04.384Z,2.27
2019-06-20T15:35:19.473Z,2.20
2019-06-20T15:37:49.908Z,2.10
2019-06-20T15:40:18.513Z,2.10
2019-06-20T15:42:47.098Z,2.20
2019-06-20T15:45:16.119Z,2.70
2019-06-20T15:47:45.809Z,2.13
2019-06-20T15:50:15.848Z,1.90
2019-06-20T15:52:43.665Z,1.93
2019-06-20T15:55:11.551Z,2.43
2019-06-20T15:57:39.681Z,2.10
2019-06-20T16:00:08.638Z,2.13
2019-06-20T16:02:36.482Z,2.20
2019-06-20T16:05:05.346Z,2.37
2019-06-20T16:07:33.181Z,2.30
2019-06-20T16:10:01.007Z,2.67
2019-06-20T16:12:28.833Z,2.70
2019-06-20T16:14:56.746Z,2.60
2019-06-20T16:17:24.612Z,1.97
2019-06-20T16:19:52.479Z,2.43
2019-06-20T16:22:20.385Z,3.27
2019-06-20T16:24:48.229Z,2.13
2019-06-20T16:27:16.390Z,2.97
2019-06-20T16:29:44.231Z,2.53
2019-06-20T16:32:12.054Z,2.47
2019-06-20T16:34:39.897Z,3.10
2019-06-20T16:37:10.465Z,2.33
2019-06-20T16:39:37.533Z,2.40
2019-06-20T16:42:05.368Z,2.00
2019-06-20T16:44:33.196Z,2.30
2019-06-20T16:47:01.008Z,2.50
2019-06-20T16:49:28.899Z,1.57
2019-06-20T16:51:57.105Z,2.50
2019-06-20T16:54:25.729Z,2.00
2019-06-20T16:56:54.861Z,2.30
2019-06-20T16:59:23.205Z,2.27
2019-06-20T17:01:51.041Z,1.60
2019-06-20T17:04:20.645Z,1.73
2019-06-20T17:06:50.098Z,1.70
2019-06-20T17:09:23.048Z,2.07
2019-06-20T17:11:50.908Z,8.13
2019-06-20T17:14:18.849Z,21.23
2019-06-20T17:16:46.703Z,5.30
2019-06-20T17:19:14.483Z,3.60
2019-06-20T17:21:42.335Z,2.60
2019-06-20T17:24:10.414Z,1.60
2019-06-20T17:26:38.190Z,1.73
2019-06-20T17:29:06.103Z,1.90
2019-06-20T17:31:34.028Z,2.00
2019-06-20T17:34:01.932Z,2.40
2019-06-20T17:36:29.696Z,1.77
2019-06-20T17:38:57.518Z,1.53
2019-06-20T17:41:25.390Z,1.80
2019-06-20T17:43:53.189Z,1.73
2019-06-20T17:46:21.010Z,2.20
2019-06-20T17:48:48.825Z,1.83
2019-06-20T17:51:16.756Z,1.53
2019-06-20T17:53:44.515Z,2.50
2019-06-20T17:56:12.384Z,2.20
2019-06-20T17:58:40.147Z,1.40
2019-06-20T18:01:07.997Z,1.83
2019-06-20T18:03:35.755Z,1.30
2019-06-20T18:06:03.542Z,1.90
2019-06-20T18:08:31.353Z,1.63
2019-06-20T18:10:59.157Z,1.70
2019-06-20T18:13:26.994Z,1.40
2019-06-20T18:15:54.807Z,1.60
2019-06-20T18:18:22.612Z,1.37
2019-06-20T18:20:50.387Z,1.67
2019-06-20T18:23:18.236Z,2.00
2019-06-20T18:25:46.052Z,1.90
2019-06-20T18:28:13.829Z,1.50
2019-06-20T18:30:43.118Z,1.47
2019-06-20T18:33:11.122Z,1.50
2019-06-20T18:35:38.991Z,1.57
2019-06-20T18:38:06.894Z,1.57
2019-06-20T18:40:34.683Z,1.60
2019-06-20T18:43:02.809Z,1.73
2019-06-20T18:45:30.695Z,2.00
2019-06-20T18:47:58.476Z,1.60
2019-06-20T18:50:26.319Z,1.43
2019-06-20T18:52:54.123Z,2.30
2019-06-20T18:55:21.908Z,2.20
2019-06-20T18:57:50.056Z,2.03
2019-06-20T19:00:33.605Z,1.77
2019-06-20T19:02:50.087Z,2.20
2019-06-20T19:05:17.992Z,2.93
2019-06-20T19:07:45.826Z,2.80
2019-06-20T19:10:19.762Z,2.77
2019-06-20T19:12:47.568Z,2.70
2019-06-20T19:15:15.829Z,3.97
2019-06-20T19:17:43.653Z,2.30
2019-06-20T19:20:13.413Z,2.17
2019-06-20T19:22:41.194Z,2.20
2019-06-20T19:25:10.629Z,4.63
2019-06-20T19:27:46.055Z,2.57
2019-06-20T19:30:10.492Z,2.00
2019-06-20T19:32:38.485Z,1.80
2019-06-20T19:35:09.859Z,2.07
2019-06-20T19:37:36.025Z,1.93
2019-06-20T19:40:05.560Z,2.23
2019-06-20T19:42:33.351Z,1.70
2019-06-20T19:45:01.632Z,2.20
2019-06-20T19:47:29.506Z,2.33
2019-06-20T19:49:57.434Z,2.33
2019-06-20T19:52:25.330Z,2.77
2019-06-20T19:54:53.107Z,2.50
2019-06-20T19:57:21.201Z,2.50
2019-06-20T19:59:49.013Z,3.40
2019-06-20T20:02:16.785Z,4.03
2019-06-20T20:04:44.537Z,3.37
2019-06-20T20:07:12.344Z,3.07
2019-06-20T20:09:40.160Z,4.00
2019-06-20T20:12:09.103Z,4.03
2019-06-20T20:14:36.960Z,3.70
2019-06-20T20:17:04.731Z,3.57
2019-06-20T20:19:32.491Z,3.60
2019-06-20T20:22:00.945Z,4.10
2019-06-20T20:24:28.678Z,2.90
2019-06-20T20:26:56.507Z,3.40
2019-06-20T20:29:24.282Z,4.13
2019-06-20T20:31:52.132Z,3.90
2019-06-20T20:34:19.898Z,4.87
2019-06-20T20:36:47.697Z,4.23
2019-06-20T20:39:17.042Z,5.10
2019-06-20T20:41:45.173Z,4.53
2019-06-20T20:44:12.954Z,5.43
2019-06-20T20:46:40.753Z,4.90
2019-06-20T20:49:08.593Z,5.40
2019-06-20T20:51:36.387Z,4.60
2019-06-20T20:54:04.161Z,5.33
2019-06-20T20:56:31.947Z,4.47
2019-06-20T20:58:59.784Z,5.30
2019-06-20T21:01:30.280Z,5.10
2019-06-20T21:03:59.213Z,4.90
2019-06-20T21:06:27.670Z,4.20
2019-06-20T21:08:55.531Z,4.57
2019-06-20T21:11:23.293Z,4.83
2019-06-20T21:13:51.081Z,5.40
2019-06-20T21:16:18.860Z,4.23
2019-06-20T21:18:46.660Z,5.53
2019-06-20T21:21:14.445Z,5.63
2019-06-20T21:23:42.157Z,6.47
2019-06-20T21:26:09.957Z,6.13
2019-06-20T21:28:37.773Z,4.30
2019-06-20T21:31:05.553Z,3.73
2019-06-20T21:33:35.117Z,3.50
2019-06-20T21:36:08.373Z,4.17
2019-06-20T21:38:32.634Z,3.83
2019-06-20T21:41:00.429Z,4.73
2019-06-20T21:43:28.483Z,4.43
2019-06-20T21:45:56.338Z,3.67
2019-06-20T21:48:24.095Z,3.80
2019-06-20T21:50:51.909Z,3.83
2019-06-20T21:53:19.682Z,4.10
2019-06-20T21:55:47.530Z,3.60
2019-06-20T21:58:15.290Z,4.17
2019-06-20T22:00:48.782Z,3.90
2019-06-20T22:03:16.557Z,3.30
2019-06-20T22:05:44.729Z,4.20
2019-06-20T22:08:12.525Z,3.43
2019-06-20T22:10:40.322Z,3.63
2019-06-20T22:13:08.184Z,3.53
2019-06-20T22:15:36.634Z,3.50
2019-06-20T22:18:04.500Z,3.10
2019-06-20T22:20:32.292Z,3.10
2019-06-20T22:23:00.053Z,3.37
2019-06-20T22:25:27.988Z,3.10
2019-06-20T22:27:55.751Z,3.50
2019-06-20T22:30:48.201Z,2.87
2019-06-20T22:33:15.982Z,2.93
2019-06-20T22:35:45.920Z,2.93
2019-06-20T22:38:14.000Z,3.90
2019-06-20T22:40:41.824Z,3.33
2019-06-20T22:43:09.600Z,3.20
2019-06-20T22:45:37.350Z,3.40
2019-06-20T22:48:05.138Z,4.03
2019-06-20T22:50:32.950Z,3.83
2019-06-20T22:53:00.745Z,3.33
2019-06-20T22:55:28.613Z,3.70
2019-06-20T22:57:56.369Z,3.50
2019-06-20T23:00:24.182Z,3.47
2019-06-20T23:02:51.975Z,3.30
2019-06-20T23:05:19.740Z,3.57
2019-06-20T23:07:47.523Z,3.70
2019-06-20T23:10:16.042Z,3.20
2019-06-20T23:12:43.843Z,3.20
2019-06-20T23:15:12.067Z,3.43
2019-06-20T23:17:39.859Z,4.23
2019-06-20T23:20:08.417Z,3.90
2019-06-20T23:22:36.218Z,4.13
2019-06-20T23:25:04.644Z,4.40
2019-06-20T23:27:32.463Z,3.90
2019-06-20T23:30:00.246Z,3.70
2019-06-20T23:32:28.027Z,3.90
2019-06-20T23:34:55.801Z,4.20
2019-06-20T23:37:23.564Z,4.10
2019-06-20T23:39:51.363Z,4.60
2019-06-20T23:42:19.155Z,3.70
2019-06-20T23:44:47.008Z,3.40
2019-06-20T23:47:14.805Z,3.90
2019-06-20T23:49:42.569Z,3.73
2019-06-20T23:52:15.228Z,3.37
2019-06-20T23:54:43.023Z,4.00
2019-06-20T23:57:10.819Z,3.43
2019-06-20T23:59:38.597Z,3.30
